Time;durP1;ratioP1;P1;durP2;ratioP2;P2;SDS_P1;SDS_P2;PMS_P1;PMS_P2;Temp;Humidity;BMP_temperature;BMP_pressure;BME280_temperature;BME280_humidity;BME280_pressure;Samples;Min_cycle;Max_cycle;Signal;HPM_P1;HPM_P2
2021/07/01 00:06:46;;;;;;;4.95;1.88;;;24.40;28.20;;;;;;20540260;28;80534;-72
2021/07/01 00:16:50;;;;;;;4.47;2.20;;;24.20;28.50;;;;;;20532024;28;80989;-72
2021/07/01 00:26:52;;;;;;;4.22;1.90;;;24.00;29.20;;;;;;20526558;28;82090;-73
2021/07/01 00:36:53;;;;;;;;;;;23.70;29.30;;;;;;20519920;28;80661;-72
2021/07/01 00:46:55;;;;;;;5.07;1.50;;;23.50;29.30;;;;;;20562952;28;80664;-73
2021/07/01 00:56:57;;;;;;;4.72;1.90;;;23.50;29.70;;;;;;20543304;28;80542;-73
2021/07/01 01:07:01;;;;;;;4.70;1.60;;;23.30;30.50;;;;;;20540505;28;80711;-73
2021/07/01 01:17:04;;;;;;;7.25;1.85;;;23.00;32.20;;;;;;20518746;28;80528;-73
2021/07/01 01:27:09;;;;;;;4.07;1.70;;;22.90;32.50;;;;;;20540687;28;80529;-73
2021/07/01 01:37:12;;;;;;;7.25;1.95;;;22.70;32.30;;;;;;20551573;28;81866;-73
2021/07/01 01:47:20;;;;;;;4.80;2.08;;;22.80;32.80;;;;;;20534879;28;81768;-73
2021/07/01 01:57:30;;;;;;;5.23;2.07;;;22.90;32.20;;;;;;20550362;28;80922;-73
2021/07/01 02:07:40;;;;;;;5.63;2.17;;;22.70;32.60;;;;;;20549268;28;80579;-74
2021/07/01 02:17:46;;;;;;;10.98;2.70;;;22.40;32.30;;;;;;20540812;28;82103;-73
2021/07/01 02:28:02;;;;;;;6.97;2.35;;;22.20;33.50;;;;;;20537216;28;80490;-73
2021/07/01 02:38:12;;;;;;;7.20;2.60;;;22.00;34.60;;;;;;20545098;28;80706;-73
2021/07/01 02:48:19;;;;;;;12.75;2.70;;;21.80;34.40;;;;;;20499974;28;82600;-72
2021/07/01 02:58:25;;;;;;;5.15;2.55;;;21.80;33.50;;;;;;20550944;28;80722;-72
2021/07/01 03:08:29;;;;;;;8.63;3.13;;;21.80;33.20;;;;;;20543144;28;81680;-72
2021/07/01 03:18:38;;;;;;;5.88;2.20;;;22.00;31.90;;;;;;20547779;28;80734;-72
2021/07/01 03:28:49;;;;;;;7.03;2.50;;;22.10;31.00;;;;;;20543002;28;80860;-72
2021/07/01 03:38:56;;;;;;;7.22;2.72;;;22.00;31.70;;;;;;20542419;28;80787;-73
2021/07/01 03:49:06;;;;;;;4.60;2.35;;;21.70;32.70;;;;;;20541882;28;80573;-73
2021/07/01 03:59:24;;;;;;;7.47;2.40;;;21.40;34.10;;;;;;20535688;28;80332;-72
2021/07/01 04:09:36;;;;;;;4.40;2.22;;;21.20;35.20;;;;;;20541905;28;80673;-73
2021/07/01 04:19:52;;;;;;;10.98;4.03;;;21.00;35.60;;;;;;20543080;28;80697;-72
2021/07/01 04:29:55;;;;;;;37.70;20.58;;;20.80;38.70;;;;;;20530570;28;80984;-73
2021/07/01 04:40:10;;;;;;;11.30;5.28;;;20.80;38.20;;;;;;20528920;28;83389;-72
2021/07/01 04:50:32;;;;;;;7.17;2.90;;;20.70;38.90;;;;;;20535814;28;85402;-71
2021/07/01 05:00:47;;;;;;;6.80;2.45;;;20.50;39.60;;;;;;20532795;28;81892;-70
2021/07/01 05:11:01;;;;;;;7.38;1.98;;;20.60;39.20;;;;;;20535273;28;80818;-71
2021/07/01 05:21:06;;;;;;;3.75;2.10;;;20.50;39.10;;;;;;20541448;28;81756;-71
2021/07/01 05:31:08;;;;;;;8.73;4.18;;;20.40;39.30;;;;;;20552560;28;80629;-71
2021/07/01 05:41:10;;;;;;;24.93;10.30;;;20.30;39.40;;;;;;20552925;28;80123;-73
2021/07/01 05:51:14;;;;;;;57.15;33.05;;;20.50;39.70;;;;;;20571185;28;83665;-71
2021/07/01 06:01:16;;;;;;;7.28;3.05;;;20.50;39.90;;;;;;20484538;28;84144;-73
2021/07/01 06:11:19;;;;;;;13.40;3.45;;;20.50;40.70;;;;;;20530561;28;83239;-72
2021/07/01 06:21:23;;;;;;;6.57;3.30;;;20.60;42.40;;;;;;20546060;28;81703;-69
2021/07/01 06:31:26;;;;;;;12.13;3.58;;;20.70;43.40;;;;;;20550440;28;80807;-72
2021/07/01 06:41:28;;;;;;;11.07;4.53;;;21.00;46.60;;;;;;20566804;28;81460;-72
2021/07/01 06:51:40;;;;;;;13.25;4.68;;;21.40;49.90;;;;;;20544597;28;80907;-72
2021/07/01 07:01:43;;;;;;;9.70;4.90;;;22.00;52.70;;;;;;20539137;28;81539;-70
2021/07/01 07:11:45;;;;;;;7.20;4.07;;;22.30;54.40;;;;;;20543605;28;81031;-70
2021/07/01 07:21:51;;;;;;;20.35;4.63;;;22.60;55.00;;;;;;20543763;28;80843;-72
2021/07/01 07:31:54;;;;;;;16.55;4.95;;;22.70;55.70;;;;;;20549629;28;80672;-73
2021/07/01 07:41:57;;;;;;;12.82;4.07;;;22.90;55.00;;;;;;20532455;28;81072;-72
2021/07/01 07:52:06;;;;;;;8.20;4.07;;;23.10;54.80;;;;;;20507071;28;80728;-72
2021/07/01 08:02:41;;;;;;;8.43;3.42;;;23.20;54.00;;;;;;20579912;28;80761;-72
2021/07/01 08:12:48;;;;;;;11.05;4.10;;;23.50;52.90;;;;;;20524477;28;80153;-70
2021/07/01 08:22:55;;;;;;;9.63;5.00;;;23.70;51.30;;;;;;20522998;28;80579;-72
2021/07/01 08:33:03;;;;;;;8.98;3.70;;;23.80;50.80;;;;;;20517431;28;80465;-75
2021/07/01 08:43:08;;;;;;;12.25;3.65;;;24.00;50.40;;;;;;20537355;28;80816;-75
2021/07/01 08:53:49;;;;;;;9.18;4.00;;;24.20;49.90;;;;;;20540756;28;81277;-76
2021/07/01 09:03:58;;;;;;;7.68;3.70;;;24.40;48.80;;;;;;20570088;28;80089;-75
2021/07/01 09:14:05;;;;;;;6.90;3.58;;;24.70;48.10;;;;;;20543961;28;81436;-74
2021/07/01 09:24:12;;;;;;;9.25;3.55;;;25.20;47.10;;;;;;20539798;28;81481;-74
2021/07/01 09:34:17;;;;;;;9.73;3.78;;;25.50;45.80;;;;;;20543639;28;80215;-75
2021/07/01 09:44:23;;;;;;;6.55;3.75;;;26.00;44.00;;;;;;20536948;28;80613;-74
2021/07/01 09:54:31;;;;;;;9.60;4.05;;;26.80;42.20;;;;;;20549437;28;80878;-75
2021/07/01 10:04:37;;;;;;;9.70;4.05;;;27.50;40.50;;;;;;20536614;28;80105;-75
2021/07/01 10:14:39;;;;;;;12.18;4.43;;;28.20;38.90;;;;;;20536961;28;81212;-72
2021/07/01 10:24:50;;;;;;;10.98;3.92;;;28.50;37.30;;;;;;20559710;28;80684;-72
2021/07/01 10:34:53;;;;;;;10.75;4.22;;;29.00;34.60;;;;;;20571219;28;81744;-72
2021/07/01 10:45:11;;;;;;;10.95;3.63;;;29.20;34.00;;;;;;20568253;28;80714;-72
2021/07/01 10:55:16;;;;;;;9.32;4.70;;;29.70;32.70;;;;;;20553794;28;81622;-73
2021/07/01 11:05:18;;;;;;;8.25;3.45;;;32.30;28.70;;;;;;20557064;28;80545;-72
2021/07/01 11:15:20;;;;;;;8.45;3.45;;;36.40;23.50;;;;;;20528713;28;81019;-73
2021/07/01 11:25:42;;;;;;;6.28;3.00;;;36.20;24.00;;;;;;20518137;28;80842;-72
2021/07/01 11:35:45;;;;;;;8.57;5.57;;;35.70;24.00;;;;;;20542941;28;80325;-72
2021/07/01 11:45:50;;;;;;;8.07;4.28;;;36.30;23.10;;;;;;20535133;28;80313;-71
2021/07/01 11:55:57;;;;;;;8.07;3.95;;;37.50;21.60;;;;;;20541274;28;80965;-70
2021/07/01 12:06:00;;;;;;;9.15;3.65;;;40.90;19.10;;;;;;20536056;28;81099;-69
2021/07/01 12:16:09;;;;;;;5.18;2.50;;;42.60;17.70;;;;;;20515427;28;80321;-69
2021/07/01 12:26:38;;;;;;;6.28;3.17;;;43.00;17.20;;;;;;20527895;28;80377;-70
2021/07/01 12:36:47;;;;;;;5.50;2.78;;;43.20;16.60;;;;;;20544781;28;81564;-69
2021/07/01 12:46:56;;;;;;;6.53;3.22;;;44.20;15.70;;;;;;20540539;28;81006;-72
2021/07/01 12:56:57;;;;;;;6.18;2.65;;;44.80;15.10;;;;;;20532022;28;81055;-70
2021/07/01 13:07:01;;;;;;;5.50;2.92;;;45.50;15.30;;;;;;20540116;28;80700;-70
2021/07/01 13:17:06;;;;;;;4.72;2.40;;;45.20;14.90;;;;;;20535592;28;80709;-71
2021/07/01 13:27:08;;;;;;;3.40;2.25;;;45.30;15.10;;;;;;20536005;28;80084;-66
2021/07/01 13:37:29;;;;;;;9.48;3.67;;;44.10;15.50;;;;;;20534356;28;81805;-71
2021/07/01 13:47:31;;;;;;;5.93;3.47;;;41.30;16.90;;;;;;20541583;28;80584;-71
2021/07/01 13:57:33;;;;;;;4.40;3.08;;;37.70;19.50;;;;;;20553227;28;80687;-71
2021/07/01 14:07:35;;;;;;;7.75;3.17;;;35.80;20.90;;;;;;20551021;28;80573;-71
2021/07/01 14:17:37;;;;;;;7.90;3.22;;;34.80;22.00;;;;;;20547892;28;80440;-70
2021/07/01 14:27:39;;;;;;;5.57;2.15;;;34.30;22.70;;;;;;20545064;28;80946;-71
2021/07/01 14:37:41;;;;;;;10.35;2.10;;;33.70;22.40;;;;;;20542765;28;80994;-70
2021/07/01 14:47:43;;;;;;;8.95;4.57;;;33.50;21.80;;;;;;20516112;28;81281;-71
2021/07/01 14:58:07;;;;;;;7.18;3.08;;;33.50;21.80;;;;;;20513169;28;80698;-70
2021/07/01 15:08:11;;;;;;;21.63;5.60;;;33.30;20.80;;;;;;20540530;28;81416;-71
2021/07/01 15:18:14;;;;;;;11.63;4.45;;;32.60;22.30;;;;;;20557428;28;80776;-71
2021/07/01 15:28:16;;;;;;;9.48;3.97;;;32.40;22.10;;;;;;20541937;28;80128;-71
2021/07/01 15:38:18;;;;;;;8.85;3.92;;;32.50;22.50;;;;;;20538686;28;80675;-71
2021/07/01 15:48:20;;;;;;;10.32;3.42;;;32.40;21.80;;;;;;20537812;28;81790;-72
2021/07/01 15:58:23;;;;;;;4.15;2.53;;;32.20;21.60;;;;;;20543697;28;81248;-71
2021/07/01 16:08:24;;;;;;;4.32;2.50;;;32.10;21.40;;;;;;20539766;28;80361;-71
2021/07/01 16:18:26;;;;;;;5.07;2.03;;;31.90;21.50;;;;;;20539739;28;80725;-70
2021/07/01 16:28:31;;;;;;;2.55;1.70;;;31.70;21.60;;;;;;20535925;28;80490;-71
2021/07/01 16:38:34;;;;;;;7.65;4.28;;;31.60;20.50;;;;;;20534266;28;80985;-70
2021/07/01 16:48:48;;;;;;;5.82;2.88;;;31.70;21.40;;;;;;20497244;28;80964;-70
2021/07/01 16:58:50;;;;;;;3.85;1.83;;;31.50;22.10;;;;;;20494000;28;81042;-68
2021/07/01 17:08:52;;;;;;;9.27;3.10;;;31.30;20.70;;;;;;20519258;28;81489;-67
2021/07/01 17:18:55;;;;;;;6.30;1.70;;;31.20;21.80;;;;;;20524874;28;81241;-67
2021/07/01 17:28:58;;;;;;;8.13;2.25;;;30.90;22.00;;;;;;20534885;28;80731;-67
2021/07/01 17:39:00;;;;;;;11.95;2.03;;;30.80;22.20;;;;;;20553863;28;81478;-66
2021/07/01 17:49:02;;;;;;;7.43;3.80;;;30.60;22.80;;;;;;20546608;28;81069;-68
2021/07/01 17:59:05;;;;;;;4.60;2.25;;;30.40;22.30;;;;;;20534284;28;80675;-69
2021/07/01 18:09:08;;;;;;;3.75;1.85;;;30.30;22.60;;;;;;20553224;28;81552;-69
2021/07/01 18:19:10;;;;;;;3.03;1.90;;;30.00;22.90;;;;;;20548479;28;81388;-69
2021/07/01 18:29:13;;;;;;;3.83;1.95;;;29.90;23.10;;;;;;20545864;28;80852;-69
2021/07/01 18:39:14;;;;;;;8.07;4.32;;;29.80;23.30;;;;;;20547080;28;80731;-70
2021/07/01 18:49:20;;;;;;;11.77;7.97;;;29.60;23.50;;;;;;20541527;28;80781;-69
2021/07/01 18:59:22;;;;;;;11.32;7.32;;;29.40;23.50;;;;;;20538063;28;82719;-69
2021/07/01 19:09:24;;;;;;;7.47;5.75;;;29.40;23.10;;;;;;20532253;28;80238;-69
2021/07/01 19:19:26;;;;;;;9.57;4.80;;;29.20;24.10;;;;;;20523343;28;80935;-72
2021/07/01 19:29:30;;;;;;;9.35;5.47;;;29.00;24.90;;;;;;20539060;28;81375;-73
2021/07/01 19:39:32;;;;;;;8.82;5.68;;;28.80;24.60;;;;;;20541631;28;81090;-68
2021/07/01 19:49:34;;;;;;;10.07;7.07;;;28.70;24.70;;;;;;20541546;28;80745;-66
2021/07/01 19:59:42;;;;;;;9.07;6.07;;;28.50;25.30;;;;;;20516917;28;80706;-66
2021/07/01 20:09:44;;;;;;;9.13;5.30;;;28.40;25.20;;;;;;20532896;28;82678;-65
2021/07/01 20:19:46;;;;;;;10.00;4.75;;;28.30;26.20;;;;;;20531160;28;80702;-66
2021/07/01 20:29:48;;;;;;;13.05;9.45;;;28.20;26.00;;;;;;20531760;28;81269;-67
2021/07/01 20:39:49;;;;;;;12.85;6.20;;;28.10;25.10;;;;;;20531507;28;80714;-67
2021/07/01 20:49:51;;;;;;;10.65;7.43;;;28.10;26.10;;;;;;20537927;28;80206;-68
2021/07/01 20:59:55;;;;;;;13.55;10.15;;;28.00;27.20;;;;;;20547347;28;81432;-68
2021/07/01 21:10:04;;;;;;;16.98;7.45;;;27.90;28.20;;;;;;20538418;28;82824;-67
2021/07/01 21:20:10;;;;;;;12.70;6.93;;;27.70;27.40;;;;;;20551306;28;83610;-67
2021/07/01 21:30:13;;;;;;;7.85;3.15;;;27.70;28.60;;;;;;20553216;28;80461;-66
2021/07/01 21:40:24;;;;;;;13.85;4.38;;;27.60;28.10;;;;;;20548396;28;80583;-66
2021/07/01 21:50:28;;;;;;;34.58;22.35;;;27.50;27.80;;;;;;20549103;28;81791;-67
2021/07/01 22:00:32;;;;;;;7.28;4.88;;;27.20;28.30;;;;;;20534663;28;82998;-65
2021/07/01 22:10:34;;;;;;;3.88;2.70;;;27.00;28.20;;;;;;20551032;28;83351;-67
2021/07/01 22:20:37;;;;;;;12.23;2.80;;;26.80;29.00;;;;;;20549019;28;80124;-66
2021/07/01 22:30:39;;;;;;;5.80;3.20;;;26.50;28.90;;;;;;20560809;28;81101;-66
2021/07/01 22:40:41;;;;;;;7.78;2.70;;;26.30;28.40;;;;;;20550648;28;80433;-66
2021/07/01 22:50:43;;;;;;;4.72;3.20;;;26.00;29.50;;;;;;20546198;28;81211;-65
2021/07/01 23:00:45;;;;;;;4.72;2.85;;;25.90;30.40;;;;;;20548010;28;80707;-65
2021/07/01 23:10:48;;;;;;;5.22;2.72;;;25.50;30.80;;;;;;20547606;28;80675;-66
2021/07/01 23:20:51;;;;;;;8.45;4.60;;;25.30;31.10;;;;;;20546124;28;80834;-66
2021/07/01 23:30:53;;;;;;;4.82;2.90;;;25.10;31.50;;;;;;20540792;28;80533;-65
2021/07/01 23:40:54;;;;;;;4.90;2.67;;;25.00;31.60;;;;;;20542811;28;81086;-66
2021/07/01 23:50:57;;;;;;;5.30;2.08;;;24.80;32.00;;;;;;20541878;28;81043;-66
